Time;durP1;ratioP1;P1;durP2;ratioP2;P2;SDS_P1;SDS_P2;PMS_P1;PMS_P2;Temp;Humidity;BMP_temperature;BMP_pressure;BME280_temperature;BME280_humidity;BME280_pressure;Samples;Min_cycle;Max_cycle;Signal;HPM_P1;HPM_P2
2023/07/06 00:02:03;;;;;;;8.10;5.70;;;;;;;20.42;85.36;100439.04;107161;1254;100780;-81
2023/07/06 00:04:49;;;;;;;9.50;6.30;;;;;;;20.39;85.39;100439.92;107154;1254;98447;-81
2023/07/06 00:07:36;;;;;;;8.10;6.10;;;;;;;20.37;85.61;100447.90;107241;1258;97936;-81
2023/07/06 00:10:22;;;;;;;9.00;6.40;;;;;;;20.36;85.51;100450.55;107187;1254;97751;-81
2023/07/06 00:13:09;;;;;;;10.30;6.70;;;;;;;20.34;85.85;100455.20;106979;1254;101311;-80
2023/07/06 00:15:55;;;;;;;13.20;7.80;;;;;;;20.32;85.71;100460.52;106932;1254;99067;-80
2023/07/06 00:18:41;;;;;;;10.80;6.80;;;;;;;20.30;85.73;100459.95;107204;1254;98001;-80
2023/07/06 00:21:31;;;;;;;8.50;6.80;;;;;;;20.28;85.79;100455.29;107084;1254;97486;-81
2023/07/06 00:25:26;;;;;;;10.20;6.50;;;;;;;20.25;85.66;100454.71;107218;1254;97859;-80
2023/07/06 00:28:11;;;;;;;7.90;5.80;;;;;;;20.20;85.73;100458.95;107111;1254;101437;-81
2023/07/06 00:31:03;;;;;;;10.10;6.30;;;;;;;20.20;85.91;100458.33;107244;1254;99080;-81
2023/07/06 00:33:48;;;;;;;9.10;6.60;;;;;;;20.19;85.66;100458.46;107090;1253;98400;-80
2023/07/06 00:36:37;;;;;;;10.20;5.70;;;;;;;20.17;85.63;100452.35;107161;1254;98848;-80
2023/07/06 00:39:22;;;;;;;11.50;5.70;;;;;;;20.15;85.52;100452.87;107174;1254;97749;-79
2023/07/06 00:42:15;;;;;;;8.40;6.00;;;;;;;20.14;85.50;100452.53;106842;1257;101364;-80
2023/07/06 00:45:01;;;;;;;10.50;6.00;;;;;;;20.12;85.16;100444.78;106606;1257;99178;-80
2023/07/06 00:47:51;;;;;;;9.40;5.90;;;;;;;20.11;85.58;100442.37;106639;1257;99301;-79
2023/07/06 00:50:37;;;;;;;10.90;6.10;;;;;;;20.09;85.49;100442.02;106897;1258;97739;-79
2023/07/06 00:53:27;;;;;;;8.60;5.90;;;;;;;20.04;85.42;100438.09;106732;1254;97874;-80
2023/07/06 00:56:17;;;;;;;7.80;6.50;;;;;;;20.02;85.46;100435.57;106797;1254;102681;-80
2023/07/06 00:59:09;;;;;;;9.40;5.70;;;;;;;19.99;85.40;100434.23;107143;1254;100319;-81
2023/07/06 01:01:54;;;;;;;10.60;5.60;;;;;;;19.99;85.38;100440.37;106987;1254;98957;-80
2023/07/06 01:04:42;;;;;;;14.40;5.70;;;;;;;19.98;85.52;100436.66;106807;1254;98768;-79
2023/07/06 01:07:31;;;;;;;17.90;5.50;;;;;;;19.99;85.91;100434.98;107376;1253;99359;-80
2023/07/06 01:10:18;;;;;;;24.10;6.40;;;;;;;20.00;86.17;100433.92;106956;1254;101312;-81
2023/07/06 01:13:04;;;;;;;16.40;6.40;;;;;;;20.01;86.20;100431.66;107093;1254;99841;-79
2023/07/06 01:15:57;;;;;;;11.30;5.80;;;;;;;20.01;86.22;100428.71;107080;1259;98863;-79
2023/07/06 01:19:09;;;;;;;18.50;6.00;;;;;;;20.01;86.34;100429.30;107080;1256;97877;-80
2023/07/06 01:22:17;;;;;;;17.10;6.10;;;;;;;19.98;86.28;100426.06;107106;1254;97881;-80
2023/07/06 01:25:08;;;;;;;13.30;6.00;;;;;;;19.97;86.48;100428.59;107082;1253;101925;-80
2023/07/06 01:28:09;;;;;;;11.00;5.60;;;;;;;19.97;86.23;100429.30;107192;1254;99046;-80
2023/07/06 01:31:29;;;;;;;15.50;5.20;;;;;;;19.97;86.13;100426.38;107082;1255;98953;-79
2023/07/06 01:34:36;;;;;;;7.30;5.10;;;;;;;19.94;86.23;100427.74;107298;1254;97486;-80
2023/07/06 01:37:29;;;;;;;9.60;4.70;;;;;;;19.90;86.23;100420.45;107305;1254;98411;-81
2023/07/06 01:40:14;;;;;;;8.00;4.70;;;;;;;19.89;85.73;100418.77;107209;1254;102757;-81
2023/07/06 01:43:00;;;;;;;10.40;4.90;;;;;;;19.88;86.08;100420.55;107358;1254;99138;-81
2023/07/06 01:45:46;;;;;;;8.00;4.70;;;;;;;19.87;85.86;100420.41;107335;1257;98325;-81
2023/07/06 01:48:32;;;;;;;9.70;4.60;;;;;;;19.87;85.77;100422.92;107300;1253;96498;-81
2023/07/06 01:51:43;;;;;;;10.10;5.10;;;;;;;19.87;85.62;100428.41;107027;1258;99655;-80
2023/07/06 01:54:37;;;;;;;8.80;4.50;;;;;;;19.86;85.30;100431.73;107174;1254;101374;-80
2023/07/06 01:57:35;;;;;;;9.20;5.00;;;;;;;19.85;85.36;100439.70;108166;1254;99049;-79
2023/07/06 02:00:23;;;;;;;10.30;4.50;;;;;;;19.84;85.24;100441.20;106476;1260;99026;-80
2023/07/06 02:03:08;;;;;;;11.70;4.70;;;;;;;19.82;85.30;100438.83;106613;1259;95893;-80
2023/07/06 02:05:54;;;;;;;9.20;4.80;;;;;;;19.79;85.38;100437.65;106685;1258;97905;-79
2023/07/06 02:08:43;;;;;;;9.10;4.70;;;;;;;19.76;85.25;100433.81;106699;1256;102573;-80
2023/07/06 02:11:29;;;;;;;9.10;4.90;;;;;;;19.75;85.29;100428.08;106129;1260;99163;-78
2023/07/06 02:14:15;;;;;;;12.20;4.70;;;;;;;19.73;85.12;100425.64;106386;1260;100079;-79
2023/07/06 02:17:00;;;;;;;9.30;4.80;;;;;;;19.70;85.21;100427.20;106553;1257;97971;-79
2023/07/06 02:19:46;;;;;;;8.30;5.30;;;;;;;19.64;85.15;100432.49;106441;1259;98408;-79
2023/07/06 02:22:32;;;;;;;9.30;4.70;;;;;;;19.59;85.42;100428.28;106541;1257;102636;-80
2023/07/06 02:25:18;;;;;;;14.20;5.20;;;;;;;19.54;85.37;100427.67;106499;1254;99427;-79
2023/07/06 02:28:03;;;;;;;11.30;5.50;;;;;;;19.51;85.17;100430.55;106555;1260;97718;-79
2023/07/06 02:30:50;;;;;;;10.30;5.00;;;;;;;19.47;85.10;100436.30;106565;1260;97969;-80
2023/07/06 02:33:36;;;;;;;9.00;4.90;;;;;;;19.43;85.24;100438.41;106639;1254;97974;-80
2023/07/06 02:36:21;;;;;;;13.90;5.00;;;;;;;19.41;85.39;100444.90;106612;1254;101301;-80
2023/07/06 02:39:07;;;;;;;10.10;4.90;;;;;;;19.40;85.56;100449.40;106549;1254;100365;-80
2023/07/06 02:41:56;;;;;;;9.90;5.50;;;;;;;19.39;85.75;100454.33;106527;1256;97874;-80
2023/07/06 02:44:43;;;;;;;18.50;5.70;;;;;;;19.38;86.07;100462.63;106482;1254;97765;-80
2023/07/06 02:47:28;;;;;;;12.90;5.80;;;;;;;19.36;86.30;100465.92;106703;1259;98011;-79
2023/07/06 02:50:14;;;;;;;8.20;6.30;;;;;;;19.35;86.73;100472.09;106517;1254;101357;-79
2023/07/06 02:52:59;;;;;;;9.70;5.50;;;;;;;19.34;86.93;100477.82;106475;1259;100376;-79
2023/07/06 02:55:48;;;;;;;11.40;5.10;;;;;;;19.33;87.33;100473.66;106540;1258;98279;-79
2023/07/06 02:58:34;;;;;;;6.60;5.30;;;;;;;19.34;87.50;100469.44;106603;1254;97961;-80
2023/07/06 03:01:20;;;;;;;11.50;6.10;;;;;;;19.35;87.82;100468.21;106601;1254;97760;-79
2023/07/06 03:04:09;;;;;;;9.40;5.50;;;;;;;19.36;87.86;100472.14;106702;1254;102630;-80
2023/07/06 03:06:55;;;;;;;7.00;4.80;;;;;;;19.37;87.86;100464.84;106683;1254;99081;-79
2023/07/06 03:09:42;;;;;;;8.00;5.30;;;;;;;19.39;88.11;100475.14;106712;1254;98834;-80
2023/07/06 03:12:33;;;;;;;6.40;5.20;;;;;;;19.40;87.99;100476.23;107094;1257;97891;-80
2023/07/06 03:15:18;;;;;;;14.30;6.60;;;;;;;19.40;88.12;100476.89;106690;1254;98015;-80
2023/07/06 03:18:05;;;;;;;10.10;5.00;;;;;;;19.42;88.29;100484.09;106374;1258;101890;-80
2023/07/06 03:20:52;;;;;;;9.80;5.70;;;;;;;19.40;88.39;100484.13;106659;1257;100321;-80
2023/07/06 03:23:37;;;;;;;10.90;4.90;;;;;;;19.37;88.50;100482.98;107030;1256;98879;-80
2023/07/06 03:26:24;;;;;;;9.20;5.50;;;;;;;19.34;88.74;100488.20;106993;1253;97930;-80
2023/07/06 03:29:13;;;;;;;6.70;5.00;;;;;;;19.34;89.07;100492.79;107682;1252;97976;-81
2023/07/06 03:32:00;;;;;;;10.10;4.70;;;;;;;19.32;89.18;100497.20;107050;1254;101366;-80
2023/07/06 03:34:46;;;;;;;7.00;4.80;;;;;;;19.30;89.47;100501.18;107211;1256;100289;-80
2023/07/06 03:37:32;;;;;;;7.50;5.40;;;;;;;19.29;89.37;100502.75;106922;1255;98982;-81
2023/07/06 03:40:17;;;;;;;11.30;5.90;;;;;;;19.31;89.76;100502.08;107055;1254;98036;-81
2023/07/06 03:43:03;;;;;;;8.80;5.60;;;;;;;19.29;90.02;100502.96;107079;1254;97963;-80
2023/07/06 03:45:48;;;;;;;10.40;6.40;;;;;;;19.28;90.32;100510.39;106931;1256;102569;-80
2023/07/06 03:48:34;;;;;;;9.60;5.50;;;;;;;19.26;90.45;100513.52;107100;1256;100338;-80
2023/07/06 03:51:19;;;;;;;9.40;5.80;;;;;;;19.25;90.63;100516.70;106680;1257;99305;-80
2023/07/06 03:54:06;;;;;;;10.00;5.70;;;;;;;19.26;90.80;100514.44;106599;1254;97998;-80
2023/07/06 03:56:53;;;;;;;8.80;6.40;;;;;;;19.28;90.91;100514.52;107006;1254;99563;-80
2023/07/06 03:59:38;;;;;;;14.00;6.30;;;;;;;19.29;91.10;100521.59;106968;1255;111287;-80
2023/07/06 04:02:24;;;;;;;10.40;6.40;;;;;;;19.31;91.42;100522.98;107007;1257;99646;-80
2023/07/06 04:05:09;;;;;;;13.10;6.60;;;;;;;19.32;91.58;100530.19;106631;1254;98537;-80
2023/07/06 04:07:55;;;;;;;9.20;6.20;;;;;;;19.35;91.94;100532.27;106596;1257;97955;-80
2023/07/06 04:10:41;;;;;;;11.00;6.50;;;;;;;19.39;92.32;100535.75;106723;1254;97947;-80
2023/07/06 04:13:27;;;;;;;9.50;6.40;;;;;;;19.43;92.08;100537.52;106678;1254;103037;-81
2023/07/06 04:16:16;;;;;;;9.70;6.20;;;;;;;19.47;92.19;100538.61;107077;1254;99821;-80
2023/07/06 04:19:02;;;;;;;11.30;6.90;;;;;;;19.51;92.26;100540.16;107266;1255;98970;-80
2023/07/06 04:21:48;;;;;;;10.50;6.90;;;;;;;19.52;92.31;100542.63;107224;1254;96469;-80
2023/07/06 04:24:34;;;;;;;9.00;6.40;;;;;;;19.53;92.72;100545.47;107004;1254;97873;-80
2023/07/06 04:27:20;;;;;;;9.90;6.80;;;;;;;19.54;92.66;100544.23;107205;1254;101313;-80
2023/07/06 04:30:06;;;;;;;8.90;6.00;;;;;;;19.53;92.38;100541.55;107243;1254;100328;-80
2023/07/06 04:32:51;;;;;;;9.60;6.40;;;;;;;19.51;92.27;100543.58;107190;1258;98041;-80
2023/07/06 04:35:37;;;;;;;11.60;7.20;;;;;;;19.50;92.72;100544.61;107018;1254;97704;-81
2023/07/06 04:38:25;;;;;;;8.00;6.30;;;;;;;19.54;93.18;100548.78;107015;1254;97965;-80
2023/07/06 04:41:12;;;;;;;10.00;7.50;;;;;;;19.56;93.27;100550.30;106946;1254;101400;-80
2023/07/06 04:43:57;;;;;;;7.80;6.80;;;;;;;19.59;93.49;100553.54;107036;1257;99114;-80
2023/07/06 04:46:43;;;;;;;11.30;6.70;;;;;;;19.60;93.21;100556.19;107052;1257;98441;-80
2023/07/06 04:49:28;;;;;;;13.90;7.50;;;;;;;19.61;93.36;100561.46;107057;1256;97912;-80
2023/07/06 04:52:14;;;;;;;10.10;7.00;;;;;;;19.62;93.53;100567.34;107014;1254;97916;-81
2023/07/06 04:55:00;;;;;;;9.50;6.90;;;;;;;19.63;93.32;100575.79;107124;1254;102616;-80
2023/07/06 04:57:46;;;;;;;15.00;7.90;;;;;;;19.62;93.56;100579.20;107205;1257;100563;-80
2023/07/06 05:00:34;;;;;;;10.40;7.50;;;;;;;19.66;94.01;100580.58;106899;1254;98680;-81
2023/07/06 05:03:19;;;;;;;14.00;8.20;;;;;;;19.67;93.84;100583.48;107005;1254;97752;-81
2023/07/06 05:06:09;;;;;;;11.70;7.40;;;;;;;19.66;94.05;100588.85;107269;1257;96438;-80
2023/07/06 05:08:54;;;;;;;12.30;8.10;;;;;;;19.69;94.07;100588.90;107107;1257;101321;-81
2023/07/06 05:11:41;;;;;;;12.40;7.70;;;;;;;19.74;94.11;100592.93;107182;1258;99079;-79
2023/07/06 05:14:27;;;;;;;9.00;7.40;;;;;;;19.76;94.37;100592.11;107332;1253;99526;-80
2023/07/06 05:17:13;;;;;;;10.90;7.70;;;;;;;19.82;94.85;100590.20;107046;1258;98000;-81
2023/07/06 05:19:58;;;;;;;11.10;7.70;;;;;;;19.90;94.90;100590.77;107187;1256;96552;-81
2023/07/06 05:22:48;;;;;;;15.40;8.00;;;;;;;19.92;94.39;100594.86;107154;1254;102334;-80
2023/07/06 05:25:36;;;;;;;11.20;8.00;;;;;;;19.92;94.21;100597.96;107218;1253;100352;-81
2023/07/06 05:28:23;;;;;;;11.10;7.60;;;;;;;19.92;94.35;100599.21;107123;1254;98055;-82
2023/07/06 05:31:09;;;;;;;11.20;7.20;;;;;;;19.91;94.37;100602.56;107208;1256;98020;-81
2023/07/06 05:33:55;;;;;;;12.40;7.70;;;;;;;19.98;94.56;100602.73;107174;1254;99554;-81
2023/07/06 05:36:40;;;;;;;10.10;7.30;;;;;;;20.06;94.97;100601.66;107225;1256;101926;-81
2023/07/06 05:39:26;;;;;;;11.80;7.50;;;;;;;20.19;95.17;100600.41;107096;1257;100162;-80
2023/07/06 05:42:13;;;;;;;13.40;7.10;;;;;;;20.25;94.28;100604.33;107148;1254;97842;-80
2023/07/06 05:44:58;;;;;;;10.00;7.30;;;;;;;20.25;94.10;100603.13;107238;1258;97772;-81
2023/07/06 05:47:45;;;;;;;13.40;7.40;;;;;;;20.27;93.89;100606.19;107113;1260;98030;-81
2023/07/06 05:50:31;;;;;;;10.60;7.90;;;;;;;20.35;94.02;100615.14;107182;1254;101346;-81
2023/07/06 05:53:16;;;;;;;14.10;7.50;;;;;;;20.38;93.85;100621.00;107197;1255;99852;-79
2023/07/06 05:56:01;;;;;;;14.00;7.80;;;;;;;20.38;93.54;100622.14;107246;1254;99020;-80
2023/07/06 05:58:47;;;;;;;11.60;6.60;;;;;;;20.38;93.16;100631.55;107157;1254;97952;-80
2023/07/06 06:01:33;;;;;;;11.30;6.70;;;;;;;20.37;92.59;100641.23;107120;1254;98473;-81
2023/07/06 06:04:19;;;;;;;14.40;7.00;;;;;;;20.35;92.63;100647.13;107207;1254;101316;-80
2023/07/06 06:07:06;;;;;;;11.20;6.80;;;;;;;20.36;92.77;100652.38;107239;1255;99068;-80
2023/07/06 06:09:51;;;;;;;10.70;6.60;;;;;;;20.40;93.06;100659.83;107122;1254;97810;-81
2023/07/06 06:12:38;;;;;;;10.60;7.40;;;;;;;20.42;92.95;100665.63;107159;1254;97055;-81
2023/07/06 06:15:23;;;;;;;9.00;7.10;;;;;;;20.45;93.14;100668.02;107257;1254;98435;-80
2023/07/06 06:18:09;;;;;;;12.20;7.40;;;;;;;20.51;92.95;100669.46;107170;1257;101321;-81
2023/07/06 06:20:58;;;;;;;12.60;7.30;;;;;;;20.58;92.64;100667.17;107157;1257;100303;-81
2023/07/06 06:23:43;;;;;;;13.50;7.60;;;;;;;20.73;92.91;100669.18;107081;1257;107776;-80
2023/07/06 06:26:29;;;;;;;11.90;7.20;;;;;;;20.88;92.68;100673.30;107234;1258;97859;-80
2023/07/06 06:29:17;;;;;;;12.10;7.20;;;;;;;21.01;92.74;100680.73;107091;1253;100554;-80
2023/07/06 06:32:03;;;;;;;12.20;6.80;;;;;;;21.12;91.76;100688.95;107066;1254;101444;-81
2023/07/06 06:34:48;;;;;;;11.70;7.50;;;;;;;21.10;90.55;100690.45;106490;1256;99820;-86
2023/07/06 06:37:34;;;;;;;13.70;6.20;;;;;;;21.12;90.22;100691.89;106315;1254;98951;-88
2023/07/06 06:40:22;;;;;;;8.10;6.20;;;;;;;21.12;89.74;100694.50;106624;1258;97946;-88
2023/07/06 06:43:07;;;;;;;9.40;6.80;;;;;;;21.21;90.26;100698.27;106277;1259;98045;-82
2023/07/06 06:45:53;;;;;;;13.20;7.60;;;;;;;21.32;89.52;100700.37;106683;1254;102550;-85
2023/07/06 06:48:39;;;;;;;13.10;7.00;;;;;;;21.40;88.67;100701.23;106379;1256;99106;-85
2023/07/06 06:51:25;;;;;;;13.30;6.60;;;;;;;21.50;87.34;100701.06;106297;1255;97885;-85
2023/07/06 06:54:11;;;;;;;10.10;5.90;;;;;;;21.55;86.52;100702.86;106249;1254;97997;-85
2023/07/06 06:56:57;;;;;;;11.60;6.00;;;;;;;21.62;86.34;100702.50;106784;1254;97920;-79
2023/07/06 06:59:43;;;;;;;7.80;5.50;;;;;;;21.71;85.22;100709.36;107178;1258;101344;-80
2023/07/06 07:02:30;;;;;;;7.80;4.50;;;;;;;21.73;83.27;100713.95;107200;1254;100716;-79
2023/07/06 07:05:16;;;;;;;6.50;4.90;;;;;;;21.74;83.33;100713.15;106258;1256;98003;-78
2023/07/06 07:08:02;;;;;;;8.70;4.40;;;;;;;21.76;81.80;100715.90;106261;1254;98838;-78
2023/07/06 07:10:53;;;;;;;11.20;4.60;;;;;;;21.76;79.97;100717.58;106264;1254;132603;-79
2023/07/06 07:13:40;;;;;;;6.80;3.80;;;;;;;21.81;78.30;100721.38;106282;1257;101346;-79
2023/07/06 07:16:25;;;;;;;6.10;3.60;;;;;;;21.86;77.45;100724.93;105733;1257;100332;-79
2023/07/06 07:19:11;;;;;;;5.20;4.00;;;;;;;21.94;77.21;100727.30;106101;1252;97916;-81
2023/07/06 07:22:00;;;;;;;5.30;3.10;;;;;;;22.03;76.02;100734.92;106799;1254;98606;-80
2023/07/06 07:24:47;;;;;;;10.80;3.20;;;;;;;22.09;74.08;100734.04;106196;1254;98399;-85
2023/07/06 07:27:35;;;;;;;10.80;3.80;;;;;;;22.15;73.98;100729.98;106493;1255;101335;-88
2023/07/06 07:30:21;;;;;;;6.80;3.20;;;;;;;22.24;73.84;100730.46;106799;1254;100358;-82
2023/07/06 07:33:06;;;;;;;6.40;2.80;;;;;;;22.32;71.03;100726.43;106222;1260;98041;-80
2023/07/06 07:35:52;;;;;;;5.50;2.90;;;;;;;22.34;68.95;100727.43;106784;1256;97870;-81
2023/07/06 07:38:39;;;;;;;4.00;2.40;;;;;;;22.36;67.08;100733.23;106425;1254;97876;-84
2023/07/06 07:41:25;;;;;;;6.20;2.60;;;;;;;22.31;66.04;100740.48;106825;1254;102645;-81
2023/07/06 07:44:11;;;;;;;4.70;2.70;;;;;;;22.35;66.03;100741.81;106674;1253;99642;-80
2023/07/06 07:46:58;;;;;;;4.10;2.60;;;;;;;22.38;64.42;100744.44;105675;1254;99265;-78
2023/07/06 07:49:46;;;;;;;9.20;3.00;;;;;;;22.37;64.29;100741.70;106200;1257;98639;-82
2023/07/06 07:52:32;;;;;;;6.80;2.80;;;;;;;22.39;64.20;100747.23;106130;1254;97904;-82
2023/07/06 07:55:20;;;;;;;4.60;2.70;;;;;;;22.36;63.81;100741.20;106382;1255;101324;-82
2023/07/06 07:58:05;;;;;;;6.80;2.40;;;;;;;22.33;64.29;100739.60;106506;1257;100708;-83
2023/07/06 08:00:51;;;;;;;4.10;2.60;;;;;;;22.35;64.23;100742.45;106301;1254;98054;-79
2023/07/06 08:03:37;;;;;;;4.90;2.80;;;;;;;22.37;63.57;100742.90;105889;1254;98542;-84
2023/07/06 08:06:23;;;;;;;5.40;2.20;;;;;;;22.38;64.01;100747.39;106473;1253;98047;-80
2023/07/06 08:09:09;;;;;;;4.20;2.50;;;;;;;22.46;63.25;100753.30;106302;1254;102062;-86
2023/07/06 08:11:55;;;;;;;6.30;2.20;;;;;;;22.57;62.36;100760.45;106276;1255;99483;-77
2023/07/06 08:14:43;;;;;;;4.60;2.00;;;;;;;22.68;61.63;100764.76;105518;1257;98977;-77
2023/07/06 08:17:29;;;;;;;6.70;2.30;;;;;;;22.83;61.03;100766.60;105590;1262;98025;-78
2023/07/06 08:20:14;;;;;;;5.90;2.70;;;;;;;22.98;61.07;100765.45;105564;1254;99538;-77
2023/07/06 08:23:06;;;;;;;7.40;2.50;;;;;;;23.14;60.99;100764.17;105577;1258;101361;-77
2023/07/06 08:25:52;;;;;;;7.10;2.30;;;;;;;23.23;60.85;100760.12;105568;1257;99068;-78
2023/07/06 08:28:39;;;;;;;4.80;2.80;;;;;;;23.21;59.74;100762.90;105480;1258;97993;-77
2023/07/06 08:31:26;;;;;;;4.10;2.40;;;;;;;23.10;58.30;100760.10;105484;1258;98039;-77
2023/07/06 08:34:12;;;;;;;6.20;2.30;;;;;;;23.02;58.15;100760.50;105618;1254;97967;-78
2023/07/06 08:36:57;;;;;;;3.70;2.40;;;;;;;22.95;58.02;100765.93;105514;1254;101330;-77
2023/07/06 08:39:43;;;;;;;4.00;2.00;;;;;;;22.91;57.66;100766.44;105578;1255;99850;-76
2023/07/06 08:42:31;;;;;;;4.50;2.60;;;;;;;22.93;57.62;100770.94;105651;1257;98199;-77
2023/07/06 08:45:21;;;;;;;3.40;1.60;;;;;;;22.94;57.12;100777.71;105523;1258;97955;-77
2023/07/06 08:48:13;;;;;;;4.90;2.40;;;;;;;22.88;56.36;100779.05;105628;1254;98813;-77
2023/07/06 08:51:03;;;;;;;4.90;2.30;;;;;;;22.85;56.19;100777.93;105971;1254;102336;-77
2023/07/06 08:53:52;;;;;;;6.50;2.80;;;;;;;22.84;56.98;100779.71;105528;1253;99206;-77
2023/07/06 08:56:39;;;;;;;3.20;2.00;;;;;;;22.84;55.97;100778.69;105947;1257;97968;-77
2023/07/06 08:59:41;;;;;;;4.00;2.00;;;;;;;22.85;56.43;100779.57;105497;1257;97967;-77
2023/07/06 09:02:30;;;;;;;5.70;2.10;;;;;;;22.91;55.93;100782.99;105445;1257;98472;-77
2023/07/06 09:05:17;;;;;;;7.00;2.40;;;;;;;22.95;55.56;100780.34;105331;1253;101421;-77
2023/07/06 09:08:03;;;;;;;4.90;2.30;;;;;;;22.98;55.34;100780.64;105451;1254;99089;-77
2023/07/06 09:10:49;;;;;;;4.70;2.30;;;;;;;22.99;55.33;100778.56;105493;1256;98857;-78
2023/07/06 09:13:55;;;;;;;8.10;2.40;;;;;;;23.03;55.50;100777.39;105528;1258;98596;-77
2023/07/06 09:16:55;;;;;;;5.30;1.90;;;;;;;23.11;56.06;100775.67;105800;1255;97985;-77
2023/07/06 09:19:41;;;;;;;4.20;2.20;;;;;;;23.20;55.05;100777.88;105716;1254;101319;-78
2023/07/06 09:22:27;;;;;;;3.90;2.30;;;;;;;23.26;54.71;100779.87;105542;1258;99249;-77
2023/07/06 09:25:15;;;;;;;5.80;1.90;;;;;;;23.33;54.22;100779.76;105468;1257;98983;-77
2023/07/06 09:28:07;;;;;;;9.40;2.30;;;;;;;23.41;53.52;100778.92;107089;1255;97906;-77
2023/07/06 09:31:17;;;;;;;6.10;2.40;;;;;;;23.54;54.18;100788.17;105419;1256;98479;-77
2023/07/06 09:34:07;;;;;;;6.00;2.00;;;;;;;23.64;52.72;100789.26;105462;1257;102846;-77
2023/07/06 09:36:53;;;;;;;4.00;2.20;;;;;;;23.69;51.43;100786.73;105546;1256;100051;-77
2023/07/06 09:39:39;;;;;;;8.30;2.80;;;;;;;23.70;51.05;100784.13;105486;1254;98989;-77
2023/07/06 09:42:25;;;;;;;3.80;2.10;;;;;;;23.72;50.92;100779.43;105548;1256;99250;-78
2023/07/06 09:45:30;;;;;;;3.70;2.20;;;;;;;23.76;50.41;100779.77;105538;1254;97658;-77
2023/07/06 09:48:28;;;;;;;5.40;1.70;;;;;;;23.79;49.49;100776.73;105569;1258;102679;-76
2023/07/06 09:51:42;;;;;;;5.10;2.30;;;;;;;23.82;48.47;100775.74;105467;1258;99215;-77
2023/07/06 09:54:42;;;;;;;8.70;2.10;;;;;;;23.84;47.77;100776.90;105474;1254;98459;-77
2023/07/06 09:57:33;;;;;;;9.00;3.40;;;;;;;23.85;47.53;100775.80;106155;1258;97984;-76
2023/07/06 10:00:22;;;;;;;4.00;2.30;;;;;;;23.90;47.92;100774.34;106548;1256;98378;-78
2023/07/06 10:03:31;;;;;;;5.50;2.00;;;;;;;24.02;47.81;100773.52;105621;1255;101891;-80
2023/07/06 10:06:43;;;;;;;3.20;1.90;;;;;;;24.08;46.97;100774.30;106850;1257;99147;-82
2023/07/06 10:09:36;;;;;;;4.80;1.80;;;;;;;24.08;46.09;100777.77;106315;1254;98128;-81
2023/07/06 10:12:48;;;;;;;6.70;1.90;;;;;;;24.10;45.85;100775.80;105777;1257;98307;-83
2023/07/06 10:16:00;;;;;;;4.90;1.60;;;;;;;24.17;45.07;100771.20;106568;1258;98441;-84
2023/07/06 10:18:55;;;;;;;6.00;1.70;;;;;;;24.24;44.86;100767.91;106164;1254;101349;-83
2023/07/06 10:22:03;;;;;;;3.70;1.60;;;;;;;24.36;44.53;100775.27;106281;1256;100424;-82
2023/07/06 10:25:11;;;;;;;3.10;1.90;;;;;;;24.41;43.39;100786.98;106326;1258;98525;-83
2023/07/06 10:28:03;;;;;;;5.40;2.20;;;;;;;24.37;42.18;100793.73;106235;1255;98047;-80
2023/07/06 10:30:52;;;;;;;3.40;2.10;;;;;;;24.32;41.72;100789.56;106711;1254;98400;-81
2023/07/06 10:34:13;;;;;;;6.00;2.00;;;;;;;24.32;42.13;100791.80;106572;1257;102083;-84
2023/07/06 10:37:03;;;;;;;4.50;1.70;;;;;;;24.34;42.50;100789.11;106581;1256;100542;-81
2023/07/06 10:39:55;;;;;;;4.00;2.20;;;;;;;24.34;42.06;100789.55;106428;1254;98841;-83
2023/07/06 10:42:52;;;;;;;4.00;2.00;;;;;;;24.28;41.02;100788.23;106578;1260;97992;-77
2023/07/06 10:45:44;;;;;;;5.70;1.70;;;;;;;24.20;40.87;100793.52;106024;1256;98013;-79
2023/07/06 10:48:34;;;;;;;6.90;1.80;;;;;;;24.10;40.54;100797.86;106838;1256;102613;-80
2023/07/06 10:51:22;;;;;;;2.90;1.90;;;;;;;24.01;40.70;100800.42;106972;1256;99720;-79
2023/07/06 10:54:17;;;;;;;3.30;1.80;;;;;;;23.91;40.55;100798.37;107859;1255;99400;-77
2023/07/06 10:57:10;;;;;;;6.20;2.20;;;;;;;23.88;41.01;100802.30;106187;1257;99089;-78
2023/07/06 11:00:05;;;;;;;4.10;1.80;;;;;;;23.89;41.12;100805.48;105775;1258;97878;-77
2023/07/06 11:02:54;;;;;;;4.50;2.30;;;;;;;23.93;41.43;100811.23;105922;1257;102868;-83
2023/07/06 11:05:52;;;;;;;4.10;1.90;;;;;;;23.97;41.29;100815.73;106704;1255;99134;-83
2023/07/06 11:09:03;;;;;;;6.90;2.50;;;;;;;23.98;41.05;100819.61;106669;1254;97927;-81
2023/07/06 11:11:49;;;;;;;3.00;2.20;;;;;;;23.94;40.56;100821.20;106608;1258;99184;-81
2023/07/06 11:14:39;;;;;;;5.00;1.90;;;;;;;23.91;41.15;100825.45;106299;1256;97850;-80
2023/07/06 11:17:36;;;;;;;4.70;1.90;;;;;;;23.95;41.14;100827.77;106626;1256;102124;-80
2023/07/06 11:20:24;;;;;;;3.60;2.30;;;;;;;23.97;40.94;100828.21;105797;1253;100324;-78
2023/07/06 11:23:13;;;;;;;3.80;1.80;;;;;;;23.97;41.18;100832.98;105906;1256;97859;-78
2023/07/06 11:26:07;;;;;;;3.90;2.00;;;;;;;23.98;41.53;100836.20;105797;1258;97964;-78
2023/07/06 11:28:53;;;;;;;3.00;1.90;;;;;;;23.95;41.21;100840.13;106050;1256;98408;-78
2023/07/06 11:31:44;;;;;;;2.90;2.00;;;;;;;23.91;41.38;100842.03;105810;1256;101473;-78
2023/07/06 11:34:56;;;;;;;8.30;1.80;;;;;;;23.84;42.01;100844.81;105939;1256;99208;-78
2023/07/06 11:38:00;;;;;;;6.90;2.10;;;;;;;23.77;42.06;100847.47;105824;1257;98134;-78
2023/07/06 11:41:03;;;;;;;6.20;2.50;;;;;;;23.70;42.19;100849.52;105781;1256;97869;-78
2023/07/06 11:43:59;;;;;;;5.50;2.50;;;;;;;23.65;42.19;100851.73;105848;1255;98485;-78
2023/07/06 11:47:07;;;;;;;5.00;2.60;;;;;;;23.61;41.87;100851.55;105817;1257;102651;-78
2023/07/06 11:49:57;;;;;;;4.60;2.00;;;;;;;23.58;42.09;100854.36;106161;1256;99646;-78
2023/07/06 11:52:58;;;;;;;4.70;2.30;;;;;;;23.58;42.24;100855.96;105836;1258;97950;-78
2023/07/06 11:55:54;;;;;;;6.20;2.10;;;;;;;23.57;41.72;100855.73;106106;1256;98025;-78
2023/07/06 11:58:56;;;;;;;3.40;2.20;;;;;;;23.53;42.12;100856.09;106485;1257;97955;-78
2023/07/06 12:01:45;;;;;;;8.90;2.50;;;;;;;23.54;42.35;100860.09;105817;1256;102024;-78
2023/07/06 12:04:34;;;;;;;4.70;2.20;;;;;;;23.56;42.04;100866.16;105956;1256;99817;-78
2023/07/06 12:07:32;;;;;;;3.60;2.10;;;;;;;23.51;41.88;100870.67;106633;1258;97868;-79
2023/07/06 12:10:18;;;;;;;5.50;2.20;;;;;;;23.40;41.94;100869.04;106305;1256;97863;-79
2023/07/06 12:13:09;;;;;;;3.10;1.90;;;;;;;23.31;42.28;100874.04;106246;1256;98458;-78
2023/07/06 12:16:15;;;;;;;5.40;2.40;;;;;;;23.24;42.90;100873.60;108580;1254;103053;-79
2023/07/06 12:19:13;;;;;;;5.60;2.40;;;;;;;23.20;42.99;100870.30;108521;1258;100115;-80
2023/07/06 12:21:59;;;;;;;3.80;2.10;;;;;;;23.14;43.29;100865.99;106930;1255;99089;-77
2023/07/06 12:24:45;;;;;;;5.40;2.40;;;;;;;23.18;43.25;100865.85;106934;1254;99269;-86
2023/07/06 12:27:33;;;;;;;4.90;2.40;;;;;;;23.28;43.16;100865.59;106524;1256;97935;-84
2023/07/06 12:30:18;;;;;;;5.10;2.50;;;;;;;23.41;43.71;100866.36;106895;1258;101348;-79
2023/07/06 12:33:05;;;;;;;4.10;2.30;;;;;;;23.54;43.55;100858.77;106544;1256;99472;-77
2023/07/06 12:35:53;;;;;;;3.70;2.10;;;;;;;23.68;43.17;100848.34;106548;1256;98767;-79
2023/07/06 12:38:39;;;;;;;6.60;2.70;;;;;;;23.86;43.24;100845.24;107210;1255;97954;-79
2023/07/06 12:41:24;;;;;;;3.70;2.40;;;;;;;24.02;42.99;100843.99;107244;1255;97887;-79
2023/07/06 12:44:17;;;;;;;5.20;2.20;;;;;;;24.19;43.11;100843.79;107395;1256;101448;-79
2023/07/06 12:47:23;;;;;;;5.40;2.30;;;;;;;24.35;41.84;100836.21;107220;1256;100167;-80
2023/07/06 12:50:14;;;;;;;3.80;2.30;;;;;;;24.46;41.23;100828.40;106638;1258;97900;-80
2023/07/06 12:53:08;;;;;;;6.90;2.80;;;;;;;24.59;41.25;100827.24;105981;1258;98838;-78
2023/07/06 12:56:19;;;;;;;5.40;2.70;;;;;;;24.72;40.74;100823.39;106448;1256;97967;-82